Unistar — V2FW7 — position and weather

sailwx.info

Track history (hours):
 
Tides and Currents Weather Stations Pressure Air Temp Water Temp Dewpoint Dewpoint Depression Visibility Wind Speed Wind Dir Waves Ship Positions

Unistar

Last reported at 2018-Feb-21 14:39 UTC. Time now 2018-Feb-22 08:35 UTC.
Position N 36°06' W 005°21'.

Length 132 m; draft 8 m.

Type: Cargo ship. MMSI: 305826000.

Date/timePositionNaut miles runAvg speedWind from/ knotsBaromVisibWave heightAir tempDewpointWater temp
2018-Feb-21 14:39N 36°06' W 005°21'210.3
2018-Feb-21 14:30N 36°08' W 005°22'1 0.8
2018-Feb-21 13:42N 36°08' W 005°22'0 0.4
2018-Feb-21 13:30N 36°08' W 005°22'0 0.3
2018-Feb-21 12:30N 36°08' W 005°22'0 0.0
2018-Feb-21 12:00N 36°08' W 005°22'0 0.1
2018-Feb-21 11:09N 36°08' W 005°22'0 0.0
2018-Feb-21 11:00N 36°08' W 005°22'0 0.0
2018-Feb-21 07:25N 36°08' W 005°22'1 2.2
2018-Feb-21 07:00N 36°07' W 005°22'3 5.8
2018-Feb-21 06:30N 36°04' W 005°22'4 8.1
2018-Feb-21 06:01N 36°00' W 005°22'4 6.9
2018-Feb-21 05:30N 35°58' W 005°26'4 8.0
2018-Feb-21 04:59N 35°57' W 005°30'4 8.1
2018-Feb-21 04:26N 35°56' W 005°36'5 9.9
2018-Feb-21 03:55N 35°55' W 005°42'511.7
2018-Feb-21 03:29N 35°55' W 005°48'  
2018-Feb-18 21:10N 28°08' W 013°26'411.5
2018-Feb-18 20:51N 28°05' W 013°28'  
Track history (hours):
 
Tides and Currents Weather Stations Pressure Air Temp Water Temp Dewpoint Dewpoint Depression Visibility Wind Speed Wind Dir Waves Ship Positions

Unistar

Last reported at 2018-Feb-21 14:39 UTC. Time now 2018-Feb-22 08:35 UTC.
Position N 36°06' W 005°21'.

Length 132 m; draft 8 m.

Type: Cargo ship. MMSI: 305826000.

Date/timePositionNaut miles runAvg speedWind from/ knotsBaromVisibWave heightAir tempDewpointWater temp
2018-Feb-21 14:39N 36°06' W 005°21'210.3
2018-Feb-21 14:30N 36°08' W 005°22'1 0.8
2018-Feb-21 13:42N 36°08' W 005°22'0 0.4
2018-Feb-21 13:30N 36°08' W 005°22'0 0.3
2018-Feb-21 12:30N 36°08' W 005°22'0 0.0
2018-Feb-21 12:00N 36°08' W 005°22'0 0.1
2018-Feb-21 11:09N 36°08' W 005°22'0 0.0
2018-Feb-21 11:00N 36°08' W 005°22'0 0.0
2018-Feb-21 07:25N 36°08' W 005°22'1 2.2
2018-Feb-21 07:00N 36°07' W 005°22'3 5.8
2018-Feb-21 06:30N 36°04' W 005°22'4 8.1
2018-Feb-21 06:01N 36°00' W 005°22'4 6.9
2018-Feb-21 05:30N 35°58' W 005°26'4 8.0
2018-Feb-21 04:59N 35°57' W 005°30'4 8.1
2018-Feb-21 04:26N 35°56' W 005°36'5 9.9
2018-Feb-21 03:55N 35°55' W 005°42'511.7
2018-Feb-21 03:29N 35°55' W 005°48'  
2018-Feb-18 21:10N 28°08' W 013°26'411.5
2018-Feb-18 20:51N 28°05' W 013°28'  

Dump ship's entire track history